sensor_id;sensor_type;location;lat;lon;timestamp;pressure;altitude;pressure_sealevel;temperature
31528;BMP280;10206;48.012;10.030;2023-07-31T00:00:52;94981.69;;;16.78
31528;BMP280;10206;48.012;10.030;2023-07-31T00:03:18;94977.50;;;16.77
31528;BMP280;10206;48.012;10.030;2023-07-31T00:05:44;94975.94;;;16.74
31528;BMP280;10206;48.012;10.030;2023-07-31T00:08:10;94977.88;;;16.71
31528;BMP280;10206;48.012;10.030;2023-07-31T00:10:36;94969.75;;;16.62
31528;BMP280;10206;48.012;10.030;2023-07-31T00:13:02;94961.63;;;16.64
31528;BMP280;10206;48.012;10.030;2023-07-31T00:15:28;94969.25;;;16.40
31528;BMP280;10206;48.012;10.030;2023-07-31T00:17:54;94970.19;;;16.33
31528;BMP280;10206;48.012;10.030;2023-07-31T00:20:21;94966.34;;;16.49
31528;BMP280;10206;48.012;10.030;2023-07-31T00:22:48;94961.41;;;16.48
31528;BMP280;10206;48.012;10.030;2023-07-31T00:25:14;94968.09;;;16.56
31528;BMP280;10206;48.012;10.030;2023-07-31T00:27:40;94961.00;;;16.65
31528;BMP280;10206;48.012;10.030;2023-07-31T00:30:10;94958.34;;;16.67
31528;BMP280;10206;48.012;10.030;2023-07-31T00:32:36;94955.72;;;16.69
31528;BMP280;10206;48.012;10.030;2023-07-31T00:35:02;94952.72;;;16.77
31528;BMP280;10206;48.012;10.030;2023-07-31T00:37:29;94959.06;;;16.68
31528;BMP280;10206;48.012;10.030;2023-07-31T00:39:55;94952.75;;;16.65
31528;BMP280;10206;48.012;10.030;2023-07-31T00:42:21;94958.31;;;16.53
31528;BMP280;10206;48.012;10.030;2023-07-31T00:44:47;94959.94;;;16.58
31528;BMP280;10206;48.012;10.030;2023-07-31T00:47:13;94960.63;;;16.71
31528;BMP280;10206;48.012;10.030;2023-07-31T00:49:39;94955.50;;;16.65
31528;BMP280;10206;48.012;10.030;2023-07-31T00:52:06;94953.38;;;16.64
31528;BMP280;10206;48.012;10.030;2023-07-31T00:54:32;94958.34;;;16.67
31528;BMP280;10206;48.012;10.030;2023-07-31T00:56:58;94959.06;;;16.68
31528;BMP280;10206;48.012;10.030;2023-07-31T00:59:25;94952.72;;;16.77
31528;BMP280;10206;48.012;10.030;2023-07-31T01:01:51;94953.84;;;16.60
31528;BMP280;10206;48.012;10.030;2023-07-31T01:04:18;94953.38;;;16.64
31528;BMP280;10206;48.012;10.030;2023-07-31T01:12:00;94954.13;;;17.03
31528;BMP280;10206;48.012;10.030;2023-07-31T01:14:27;94944.78;;;17.08
31528;BMP280;10206;48.012;10.030;2023-07-31T01:16:53;94945.50;;;17.08
31528;BMP280;10206;48.012;10.030;2023-07-31T01:19:23;94948.75;;;17.05
31528;BMP280;10206;48.012;10.030;2023-07-31T01:27:14;94937.41;;;16.99
31528;BMP280;10206;48.012;10.030;2023-07-31T01:29:47;94931.88;;;16.99
31528;BMP280;10206;48.012;10.030;2023-07-31T01:32:15;94934.66;;;16.99
31528;BMP280;10206;48.012;10.030;2023-07-31T01:34:44;94934.31;;;16.93
31528;BMP280;10206;48.012;10.030;2023-07-31T01:37:11;94932.06;;;16.89
31528;BMP280;10206;48.012;10.030;2023-07-31T01:39:37;94929.84;;;16.74
31528;BMP280;10206;48.012;10.030;2023-07-31T01:42:03;94929.81;;;16.86
31528;BMP280;10206;48.012;10.030;2023-07-31T01:44:29;94921.06;;;17.03
31528;BMP280;10206;48.012;10.030;2023-07-31T01:46:56;94918.06;;;17.24
31528;BMP280;10206;48.012;10.030;2023-07-31T01:49:22;94915.72;;;17.32
31528;BMP280;10206;48.012;10.030;2023-07-31T01:51:48;94917.63;;;17.41
31528;BMP280;10206;48.012;10.030;2023-07-31T01:54:14;94905.88;;;17.40
31528;BMP280;10206;48.012;10.030;2023-07-31T01:56:40;94910.00;;;17.41
31528;BMP280;10206;48.012;10.030;2023-07-31T01:59:06;94909.84;;;17.51
31528;BMP280;10206;48.012;10.030;2023-07-31T02:01:33;94905.00;;;17.38
31528;BMP280;10206;48.012;10.030;2023-07-31T02:03:59;94895.31;;;17.37
31528;BMP280;10206;48.012;10.030;2023-07-31T02:06:25;94895.84;;;17.33
31528;BMP280;10206;48.012;10.030;2023-07-31T02:08:51;94888.78;;;17.30
31528;BMP280;10206;48.012;10.030;2023-07-31T02:11:17;94888.28;;;17.34
31528;BMP280;10206;48.012;10.030;2023-07-31T02:13:43;94885.72;;;17.24
31528;BMP280;10206;48.012;10.030;2023-07-31T02:16:09;94885.19;;;17.28
31528;BMP280;10206;48.012;10.030;2023-07-31T02:18:35;94873.81;;;17.22
31528;BMP280;10206;48.012;10.030;2023-07-31T02:21:01;94879.59;;;17.26
31528;BMP280;10206;48.012;10.030;2023-07-31T02:23:27;94864.44;;;17.13
31528;BMP280;10206;48.012;10.030;2023-07-31T02:25:53;94866.94;;;17.21
31528;BMP280;10206;48.012;10.030;2023-07-31T02:28:19;94874.38;;;17.18
31528;BMP280;10206;48.012;10.030;2023-07-31T02:30:46;94873.34;;;17.12
31528;BMP280;10206;48.012;10.030;2023-07-31T02:33:12;94873.69;;;16.93
31528;BMP280;10206;48.012;10.030;2023-07-31T02:35:38;94875.75;;;17.06
31528;BMP280;10206;48.012;10.030;2023-07-31T02:38:04;94873.81;;;17.08
31528;BMP280;10206;48.012;10.030;2023-07-31T02:40:30;94874.25;;;17.16
31528;BMP280;10206;48.012;10.030;2023-07-31T02:42:56;94876.09;;;17.25
31528;BMP280;10206;48.012;10.030;2023-07-31T02:45:22;94875.09;;;17.32
31528;BMP280;10206;48.012;10.030;2023-07-31T02:47:48;94876.53;;;17.47
31528;BMP280;10206;48.012;10.030;2023-07-31T02:50:14;94880.94;;;17.52
31528;BMP280;10206;48.012;10.030;2023-07-31T02:52:40;94877.88;;;17.46
31528;BMP280;10206;48.012;10.030;2023-07-31T02:55:07;94871.72;;;17.47
31528;BMP280;10206;48.012;10.030;2023-07-31T02:57:33;94871.22;;;17.51
31528;BMP280;10206;48.012;10.030;2023-07-31T02:59:59;94873.63;;;17.31
31528;BMP280;10206;48.012;10.030;2023-07-31T03:02:25;94876.88;;;17.67
31528;BMP280;10206;48.012;10.030;2023-07-31T03:04:51;94875.31;;;17.64
31528;BMP280;10206;48.012;10.030;2023-07-31T03:07:18;94876.97;;;17.55
31528;BMP280;10206;48.012;10.030;2023-07-31T03:09:44;94872.75;;;17.68
31528;BMP280;10206;48.012;10.030;2023-07-31T03:12:10;94871.00;;;17.61
31528;BMP280;10206;48.012;10.030;2023-07-31T03:14:36;94870.00;;;17.68
31528;BMP280;10206;48.012;10.030;2023-07-31T03:17:02;94874.94;;;17.69
31528;BMP280;10206;48.012;10.030;2023-07-31T03:19:31;94868.69;;;17.69
31528;BMP280;10206;48.012;10.030;2023-07-31T03:21:58;94870.63;;;17.66
31528;BMP280;10206;48.012;10.030;2023-07-31T03:24:24;94863.75;;;17.67
31528;BMP280;10206;48.012;10.030;2023-07-31T03:26:50;94876.34;;;17.70
31528;BMP280;10206;48.012;10.030;2023-07-31T03:29:16;94874.38;;;17.86
31528;BMP280;10206;48.012;10.030;2023-07-31T03:31:42;94872.84;;;17.83
31528;BMP280;10206;48.012;10.030;2023-07-31T03:34:08;94882.28;;;17.78
31528;BMP280;10206;48.012;10.030;2023-07-31T03:36:34;94872.56;;;17.77
31528;BMP280;10206;48.012;10.030;2023-07-31T03:39:00;94877.56;;;17.81
31528;BMP280;10206;48.012;10.030;2023-07-31T03:41:26;94872.47;;;17.75
31528;BMP280;10206;48.012;10.030;2023-07-31T03:43:52;94870.94;;;17.72
31528;BMP280;10206;48.012;10.030;2023-07-31T03:46:19;94866.66;;;17.69
31528;BMP280;10206;48.012;10.030;2023-07-31T03:48:45;94865.41;;;17.59
31528;BMP280;10206;48.012;10.030;2023-07-31T03:51:11;94865.41;;;17.59
31528;BMP280;10206;48.012;10.030;2023-07-31T03:53:37;94869.09;;;17.63
31528;BMP280;10206;48.012;10.030;2023-07-31T03:56:03;94866.03;;;17.57
31528;BMP280;10206;48.012;10.030;2023-07-31T03:58:29;94866.03;;;17.57
31528;BMP280;10206;48.012;10.030;2023-07-31T04:00:55;94864.91;;;17.62
31528;BMP280;10206;48.012;10.030;2023-07-31T04:03:21;94851.81;;;17.63
31528;BMP280;10206;48.012;10.030;2023-07-31T04:05:47;94860.94;;;17.65
31528;BMP280;10206;48.012;10.030;2023-07-31T04:08:14;94858.66;;;17.62
31528;BMP280;10206;48.012;10.030;2023-07-31T04:10:40;94860.81;;;17.63
31528;BMP280;10206;48.012;10.030;2023-07-31T04:13:06;94863.88;;;17.69
31528;BMP280;10206;48.012;10.030;2023-07-31T04:15:32;94872.69;;;17.79
31528;BMP280;10206;48.012;10.030;2023-07-31T04:17:58;94862.44;;;17.82
31528;BMP280;10206;48.012;10.030;2023-07-31T04:20:24;94868.38;;;17.76
31528;BMP280;10206;48.012;10.030;2023-07-31T04:22:50;94864.97;;;17.91
31528;BMP280;10206;48.012;10.030;2023-07-31T04:25:16;94874.78;;;18.08
31528;BMP280;10206;48.012;10.030;2023-07-31T04:27:42;94870.75;;;18.24
31528;BMP280;10206;48.012;10.030;2023-07-31T04:30:09;94873.81;;;18.30
31528;BMP280;10206;48.012;10.030;2023-07-31T04:32:35;94884.47;;;18.52
31528;BMP280;10206;48.012;10.030;2023-07-31T04:35:01;94877.88;;;18.72
31528;BMP280;10206;48.012;10.030;2023-07-31T04:37:28;94878.88;;;18.94
31528;BMP280;10206;48.012;10.030;2023-07-31T04:39:54;94875.34;;;18.78
31528;BMP280;10206;48.012;10.030;2023-07-31T04:42:20;94877.09;;;19.01
31528;BMP280;10206;48.012;10.030;2023-07-31T04:44:46;94859.78;;;19.00
31528;BMP280;10206;48.012;10.030;2023-07-31T04:47:12;94866.09;;;18.87
31528;BMP280;10206;48.012;10.030;2023-07-31T04:49:38;94869.59;;;18.88
31528;BMP280;10206;48.012;10.030;2023-07-31T04:52:05;94871.19;;;18.93
31528;BMP280;10206;48.012;10.030;2023-07-31T04:54:31;94876.09;;;19.10
31528;BMP280;10206;48.012;10.030;2023-07-31T04:56:57;94866.94;;;19.21
31528;BMP280;10206;48.012;10.030;2023-07-31T04:59:23;94880.66;;;19.19
31528;BMP280;10206;48.012;10.030;2023-07-31T05:01:49;94877.03;;;19.30
31528;BMP280;10206;48.012;10.030;2023-07-31T05:04:16;94876.09;;;19.10
31528;BMP280;10206;48.012;10.030;2023-07-31T05:06:42;94868.72;;;19.30
31528;BMP280;10206;48.012;10.030;2023-07-31T05:09:08;94873.53;;;19.14
31528;BMP280;10206;48.012;10.030;2023-07-31T05:11:38;94875.31;;;19.23
31528;BMP280;10206;48.012;10.030;2023-07-31T05:14:06;94869.97;;;19.11
31528;BMP280;10206;48.012;10.030;2023-07-31T05:16:32;94867.81;;;19.10
31528;BMP280;10206;48.012;10.030;2023-07-31T05:18:58;94867.81;;;19.10
31528;BMP280;10206;48.012;10.030;2023-07-31T05:21:24;94877.44;;;19.24
31528;BMP280;10206;48.012;10.030;2023-07-31T05:23:50;94876.13;;;19.25
31528;BMP280;10206;48.012;10.030;2023-07-31T05:26:16;94875.66;;;19.31
31528;BMP280;10206;48.012;10.030;2023-07-31T05:28:43;94881.09;;;19.60
31528;BMP280;10206;48.012;10.030;2023-07-31T05:31:09;94879.22;;;19.49
31528;BMP280;10206;48.012;10.030;2023-07-31T05:33:35;94874.00;;;19.73
31528;BMP280;10206;48.012;10.030;2023-07-31T05:36:01;94878.16;;;19.89
31528;BMP280;10206;48.012;10.030;2023-07-31T05:38:27;94874.13;;;19.59
31528;BMP280;10206;48.012;10.030;2023-07-31T05:40:53;94871.03;;;19.84
31528;BMP280;10206;48.012;10.030;2023-07-31T05:43:20;94873.47;;;19.76
31528;BMP280;10206;48.012;10.030;2023-07-31T05:45:46;94873.31;;;19.72
31528;BMP280;10206;48.012;10.030;2023-07-31T05:48:12;94866.56;;;19.60
31528;BMP280;10206;48.012;10.030;2023-07-31T05:50:38;94866.56;;;19.60
31528;BMP280;10206;48.012;10.030;2023-07-31T05:53:05;94869.06;;;19.87
31528;BMP280;10206;48.012;10.030;2023-07-31T05:55:32;94864.00;;;20.50
31528;BMP280;10206;48.012;10.030;2023-07-31T05:57:58;94862.16;;;20.38
31528;BMP280;10206;48.012;10.030;2023-07-31T06:00:24;94876.56;;;20.53
31528;BMP280;10206;48.012;10.030;2023-07-31T06:02:50;94872.81;;;20.64
31528;BMP280;10206;48.012;10.030;2023-07-31T06:05:17;94872.91;;;20.48
31528;BMP280;10206;48.012;10.030;2023-07-31T06:07:43;94866.88;;;20.71
31528;BMP280;10206;48.012;10.030;2023-07-31T06:10:09;94853.31;;;20.79
31528;BMP280;10206;48.012;10.030;2023-07-31T06:12:36;94853.31;;;20.79
31528;BMP280;10206;48.012;10.030;2023-07-31T06:15:03;94860.38;;;21.39
31528;BMP280;10206;48.012;10.030;2023-07-31T06:17:29;94864.06;;;21.65
31528;BMP280;10206;48.012;10.030;2023-07-31T06:19:57;94857.66;;;21.82
31528;BMP280;10206;48.012;10.030;2023-07-31T06:22:23;94861.38;;;21.69
31528;BMP280;10206;48.012;10.030;2023-07-31T06:24:49;94855.97;;;21.73
31528;BMP280;10206;48.012;10.030;2023-07-31T06:27:15;94857.84;;;21.88
31528;BMP280;10206;48.012;10.030;2023-07-31T06:29:42;94861.06;;;22.00
31528;BMP280;10206;48.012;10.030;2023-07-31T06:32:08;94868.56;;;21.76
31528;BMP280;10206;48.012;10.030;2023-07-31T06:34:34;94855.47;;;22.22
31528;BMP280;10206;48.012;10.030;2023-07-31T06:37:00;94856.72;;;22.62
31528;BMP280;10206;48.012;10.030;2023-07-31T06:39:27;94861.09;;;22.69
31528;BMP280;10206;48.012;10.030;2023-07-31T06:41:53;94864.16;;;22.77
31528;BMP280;10206;48.012;10.030;2023-07-31T06:44:19;94858.47;;;23.22
31528;BMP280;10206;48.012;10.030;2023-07-31T06:46:45;94857.19;;;23.02
31528;BMP280;10206;48.012;10.030;2023-07-31T06:49:11;94851.72;;;23.84
31528;BMP280;10206;48.012;10.030;2023-07-31T06:51:37;94853.44;;;24.25
31528;BMP280;10206;48.012;10.030;2023-07-31T06:54:04;94857.50;;;24.52
31528;BMP280;10206;48.012;10.030;2023-07-31T06:56:30;94848.09;;;24.37
31528;BMP280;10206;48.012;10.030;2023-07-31T06:58:56;94843.13;;;24.32
31528;BMP280;10206;48.012;10.030;2023-07-31T07:01:22;94845.94;;;24.04
31528;BMP280;10206;48.012;10.030;2023-07-31T07:03:48;94840.28;;;23.45
31528;BMP280;10206;48.012;10.030;2023-07-31T07:06:20;94842.81;;;23.35
31528;BMP280;10206;48.012;10.030;2023-07-31T07:08:46;94847.31;;;22.97
31528;BMP280;10206;48.012;10.030;2023-07-31T07:11:12;94838.44;;;22.79
31528;BMP280;10206;48.012;10.030;2023-07-31T07:13:38;94844.41;;;22.45
31528;BMP280;10206;48.012;10.030;2023-07-31T07:16:04;94842.38;;;22.48
31528;BMP280;10206;48.012;10.030;2023-07-31T07:18:30;94844.38;;;22.22
31528;BMP280;10206;48.012;10.030;2023-07-31T07:20:57;94843.03;;;22.23
31528;BMP280;10206;48.012;10.030;2023-07-31T07:23:24;94839.31;;;22.38
31528;BMP280;10206;48.012;10.030;2023-07-31T07:25:50;94837.25;;;22.38
31528;BMP280;10206;48.012;10.030;2023-07-31T07:28:17;94843.34;;;22.56
31528;BMP280;10206;48.012;10.030;2023-07-31T07:30:43;94842.81;;;22.38
31528;BMP280;10206;48.012;10.030;2023-07-31T07:33:09;94844.53;;;22.49
31528;BMP280;10206;48.012;10.030;2023-07-31T07:35:36;94836.81;;;22.24
31528;BMP280;10206;48.012;10.030;2023-07-31T07:38:05;94832.34;;;22.60
31528;BMP280;10206;48.012;10.030;2023-07-31T07:40:31;94829.84;;;22.23
31528;BMP280;10206;48.012;10.030;2023-07-31T07:42:57;94835.59;;;22.53
31528;BMP280;10206;48.012;10.030;2023-07-31T07:45:23;94829.75;;;22.21
31528;BMP280;10206;48.012;10.030;2023-07-31T07:47:49;94831.16;;;22.68
31528;BMP280;10206;48.012;10.030;2023-07-31T07:50:15;94817.56;;;22.78
31528;BMP280;10206;48.012;10.030;2023-07-31T07:52:41;94818.69;;;22.94
31528;BMP280;10206;48.012;10.030;2023-07-31T07:55:08;94830.22;;;22.59
31528;BMP280;10206;48.012;10.030;2023-07-31T07:57:34;94837.59;;;22.98
31528;BMP280;10206;48.012;10.030;2023-07-31T08:00:00;94843.28;;;22.78
31528;BMP280;10206;48.012;10.030;2023-07-31T08:02:26;94846.66;;;22.75
31528;BMP280;10206;48.012;10.030;2023-07-31T08:04:52;94854.28;;;22.98
31528;BMP280;10206;48.012;10.030;2023-07-31T08:07:18;94845.72;;;22.42
31528;BMP280;10206;48.012;10.030;2023-07-31T08:09:44;94852.56;;;23.10
31528;BMP280;10206;48.012;10.030;2023-07-31T08:12:10;94843.16;;;22.98
31528;BMP280;10206;48.012;10.030;2023-07-31T08:14:36;94839.75;;;23.25
31528;BMP280;10206;48.012;10.030;2023-07-31T08:17:03;94828.03;;;23.05
31528;BMP280;10206;48.012;10.030;2023-07-31T08:19:29;94830.78;;;23.54
31528;BMP280;10206;48.012;10.030;2023-07-31T08:21:55;94837.88;;;23.33
31528;BMP280;10206;48.012;10.030;2023-07-31T08:24:21;94831.88;;;23.43
31528;BMP280;10206;48.012;10.030;2023-07-31T08:26:47;94840.13;;;23.13
31528;BMP280;10206;48.012;10.030;2023-07-31T08:29:14;94827.72;;;23.71
31528;BMP280;10206;48.012;10.030;2023-07-31T08:31:40;94828.19;;;23.90
31528;BMP280;10206;48.012;10.030;2023-07-31T08:34:06;94830.50;;;23.99
31528;BMP280;10206;48.012;10.030;2023-07-31T08:36:32;94825.25;;;23.30
31528;BMP280;10206;48.012;10.030;2023-07-31T08:38:58;94837.03;;;23.82
31528;BMP280;10206;48.012;10.030;2023-07-31T08:41:24;94830.72;;;23.79
31528;BMP280;10206;48.012;10.030;2023-07-31T08:43:52;94830.06;;;23.02
31528;BMP280;10206;48.012;10.030;2023-07-31T08:46:21;94831.06;;;23.13
31528;BMP280;10206;48.012;10.030;2023-07-31T08:48:47;94835.16;;;23.63
31528;BMP280;10206;48.012;10.030;2023-07-31T08:51:15;94830.47;;;23.42
31528;BMP280;10206;48.012;10.030;2023-07-31T08:53:41;94826.25;;;23.68
31528;BMP280;10206;48.012;10.030;2023-07-31T08:56:07;94817.28;;;23.72
31528;BMP280;10206;48.012;10.030;2023-07-31T08:58:35;94823.25;;;23.88
31528;BMP280;10206;48.012;10.030;2023-07-31T09:01:04;94812.00;;;24.12
31528;BMP280;10206;48.012;10.030;2023-07-31T09:03:34;94795.59;;;23.39
31528;BMP280;10206;48.012;10.030;2023-07-31T09:06:03;94801.97;;;24.01
31528;BMP280;10206;48.012;10.030;2023-07-31T09:08:32;94806.25;;;24.06
31528;BMP280;10206;48.012;10.030;2023-07-31T09:11:02;94803.03;;;23.58
31528;BMP280;10206;48.012;10.030;2023-07-31T09:13:32;94792.34;;;23.78
31528;BMP280;10206;48.012;10.030;2023-07-31T09:15:58;94808.59;;;23.88
31528;BMP280;10206;48.012;10.030;2023-07-31T09:18:24;94806.56;;;24.20
31528;BMP280;10206;48.012;10.030;2023-07-31T09:21:04;94803.72;;;23.86
31528;BMP280;10206;48.012;10.030;2023-07-31T09:23:44;94790.34;;;24.42
31528;BMP280;10206;48.012;10.030;2023-07-31T09:26:11;94800.75;;;24.39
31528;BMP280;10206;48.012;10.030;2023-07-31T09:28:39;94800.81;;;24.43
31528;BMP280;10206;48.012;10.030;2023-07-31T09:31:05;94793.31;;;24.50
31528;BMP280;10206;48.012;10.030;2023-07-31T09:33:31;94790.66;;;24.24
31528;BMP280;10206;48.012;10.030;2023-07-31T09:35:59;94795.34;;;23.86
31528;BMP280;10206;48.012;10.030;2023-07-31T09:38:26;94787.53;;;24.73
31528;BMP280;10206;48.012;10.030;2023-07-31T09:40:52;94779.16;;;24.73
31528;BMP280;10206;48.012;10.030;2023-07-31T09:43:20;94782.31;;;24.58
31528;BMP280;10206;48.012;10.030;2023-07-31T09:45:47;94775.09;;;24.80
31528;BMP280;10206;48.012;10.030;2023-07-31T09:48:18;94784.19;;;25.19
31528;BMP280;10206;48.012;10.030;2023-07-31T09:50:47;94780.88;;;25.28
31528;BMP280;10206;48.012;10.030;2023-07-31T09:53:13;94773.88;;;25.29
31528;BMP280;10206;48.012;10.030;2023-07-31T09:55:41;94770.25;;;25.21
31528;BMP280;10206;48.012;10.030;2023-07-31T09:58:12;94768.00;;;25.51
31528;BMP280;10206;48.012;10.030;2023-07-31T10:00:38;94767.81;;;25.01
31528;BMP280;10206;48.012;10.030;2023-07-31T10:03:08;94759.28;;;25.33
31528;BMP280;10206;48.012;10.030;2023-07-31T10:05:57;94751.31;;;25.15
31528;BMP280;10206;48.012;10.030;2023-07-31T10:08:27;94759.00;;;25.15
31528;BMP280;10206;48.012;10.030;2023-07-31T10:10:55;94757.81;;;25.28
31528;BMP280;10206;48.012;10.030;2023-07-31T10:13:24;94754.56;;;25.87
31528;BMP280;10206;48.012;10.030;2023-07-31T10:15:51;94757.53;;;26.50
31528;BMP280;10206;48.012;10.030;2023-07-31T10:18:18;94764.34;;;25.86
31528;BMP280;10206;48.012;10.030;2023-07-31T10:20:46;94758.13;;;26.43
31528;BMP280;10206;48.012;10.030;2023-07-31T10:23:13;94759.06;;;26.64
31528;BMP280;10206;48.012;10.030;2023-07-31T10:25:40;94748.44;;;25.53
31528;BMP280;10206;48.012;10.030;2023-07-31T10:28:07;94741.41;;;25.48
31528;BMP280;10206;48.012;10.030;2023-07-31T10:30:34;94735.09;;;25.93
31528;BMP280;10206;48.012;10.030;2023-07-31T10:33:04;94736.72;;;25.62
31528;BMP280;10206;48.012;10.030;2023-07-31T10:35:31;94739.47;;;26.08
31528;BMP280;10206;48.012;10.030;2023-07-31T10:38:10;94730.34;;;26.59
31528;BMP280;10206;48.012;10.030;2023-07-31T10:40:37;94708.13;;;26.73
31528;BMP280;10206;48.012;10.030;2023-07-31T10:43:03;94719.63;;;27.07
31528;BMP280;10206;48.012;10.030;2023-07-31T10:48:00;94715.81;;;27.54
31528;BMP280;10206;48.012;10.030;2023-07-31T10:50:28;94699.09;;;27.68
31528;BMP280;10206;48.012;10.030;2023-07-31T10:52:55;94697.53;;;27.45
31528;BMP280;10206;48.012;10.030;2023-07-31T10:55:46;94691.19;;;27.39
31528;BMP280;10206;48.012;10.030;2023-07-31T10:58:14;94690.25;;;28.22
31528;BMP280;10206;48.012;10.030;2023-07-31T11:00:45;94687.00;;;27.44
31528;BMP280;10206;48.012;10.030;2023-07-31T11:03:18;94688.19;;;28.29
31528;BMP280;10206;48.012;10.030;2023-07-31T11:08:23;94671.28;;;28.19
31528;BMP280;10206;48.012;10.030;2023-07-31T11:10:52;94663.69;;;28.65
31528;BMP280;10206;48.012;10.030;2023-07-31T11:13:53;94665.84;;;29.01
31528;BMP280;10206;48.012;10.030;2023-07-31T11:16:22;94660.19;;;29.37
31528;BMP280;10206;48.012;10.030;2023-07-31T11:18:49;94660.94;;;28.93
31528;BMP280;10206;48.012;10.030;2023-07-31T11:21:19;94661.63;;;29.20
31528;BMP280;10206;48.012;10.030;2023-07-31T11:23:53;94658.03;;;28.45
31528;BMP280;10206;48.012;10.030;2023-07-31T11:26:22;94648.88;;;28.27
31528;BMP280;10206;48.012;10.030;2023-07-31T11:28:50;94658.69;;;28.20
31528;BMP280;10206;48.012;10.030;2023-07-31T11:31:17;94658.53;;;27.83
31528;BMP280;10206;48.012;10.030;2023-07-31T11:33:43;94660.63;;;27.85
31528;BMP280;10206;48.012;10.030;2023-07-31T11:36:17;94667.13;;;27.10
31528;BMP280;10206;48.012;10.030;2023-07-31T11:38:43;94657.03;;;27.64
31528;BMP280;10206;48.012;10.030;2023-07-31T11:41:09;94657.13;;;27.84
31528;BMP280;10206;48.012;10.030;2023-07-31T11:43:35;94666.22;;;27.83
31528;BMP280;10206;48.012;10.030;2023-07-31T11:46:04;94674.22;;;28.55
31528;BMP280;10206;48.012;10.030;2023-07-31T11:48:34;94670.72;;;28.64
31528;BMP280;10206;48.012;10.030;2023-07-31T11:51:03;94662.59;;;27.58
31528;BMP280;10206;48.012;10.030;2023-07-31T11:53:50;94674.91;;;28.51
31528;BMP280;10206;48.012;10.030;2023-07-31T11:56:19;94672.50;;;27.79
31528;BMP280;10206;48.012;10.030;2023-07-31T11:58:51;94669.22;;;28.31
31528;BMP280;10206;48.012;10.030;2023-07-31T12:01:21;94659.50;;;28.80
31528;BMP280;10206;48.012;10.030;2023-07-31T12:03:49;94663.63;;;28.35
31528;BMP280;10206;48.012;10.030;2023-07-31T12:06:15;94667.94;;;29.26
31528;BMP280;10206;48.012;10.030;2023-07-31T12:08:41;94655.97;;;29.24
31528;BMP280;10206;48.012;10.030;2023-07-31T12:11:09;94671.28;;;28.13
31528;BMP280;10206;48.012;10.030;2023-07-31T12:13:35;94652.75;;;27.55
31528;BMP280;10206;48.012;10.030;2023-07-31T12:16:03;94671.28;;;28.19
31528;BMP280;10206;48.012;10.030;2023-07-31T12:18:36;94665.09;;;28.60
31528;BMP280;10206;48.012;10.030;2023-07-31T12:21:06;94667.94;;;29.22
31528;BMP280;10206;48.012;10.030;2023-07-31T12:23:33;94660.06;;;29.97
31528;BMP280;10206;48.012;10.030;2023-07-31T12:26:12;94653.84;;;29.40
31528;BMP280;10206;48.012;10.030;2023-07-31T12:28:49;94640.50;;;29.35
31528;BMP280;10206;48.012;10.030;2023-07-31T12:31:27;94642.63;;;29.20
31528;BMP280;10206;48.012;10.030;2023-07-31T12:33:53;94628.59;;;29.26
31528;BMP280;10206;48.012;10.030;2023-07-31T12:36:23;94622.28;;;28.74
31528;BMP280;10206;48.012;10.030;2023-07-31T12:38:53;94611.06;;;28.70
31528;BMP280;10206;48.012;10.030;2023-07-31T12:41:21;94606.84;;;29.13
31528;BMP280;10206;48.012;10.030;2023-07-31T12:43:48;94601.84;;;29.33
31528;BMP280;10206;48.012;10.030;2023-07-31T12:46:14;94603.31;;;29.04
31528;BMP280;10206;48.012;10.030;2023-07-31T12:48:40;94594.16;;;29.22
31528;BMP280;10206;48.012;10.030;2023-07-31T12:51:07;94590.00;;;28.69
31528;BMP280;10206;48.012;10.030;2023-07-31T12:53:33;94592.03;;;28.10
31528;BMP280;10206;48.012;10.030;2023-07-31T12:55:59;94582.88;;;28.05
31528;BMP280;10206;48.012;10.030;2023-07-31T12:58:26;94587.16;;;29.03
31528;BMP280;10206;48.012;10.030;2023-07-31T13:00:52;94576.63;;;28.97
31528;BMP280;10206;48.012;10.030;2023-07-31T13:03:18;94578.00;;;28.10
31528;BMP280;10206;48.012;10.030;2023-07-31T13:05:44;94567.41;;;27.92
31528;BMP280;10206;48.012;10.030;2023-07-31T13:08:10;94579.94;;;27.69
31528;BMP280;10206;48.012;10.030;2023-07-31T13:10:37;94566.03;;;27.95
31528;BMP280;10206;48.012;10.030;2023-07-31T13:13:03;94560.47;;;28.08
31528;BMP280;10206;48.012;10.030;2023-07-31T13:15:29;94557.63;;;28.11
31528;BMP280;10206;48.012;10.030;2023-07-31T13:17:56;94556.25;;;28.31
31528;BMP280;10206;48.012;10.030;2023-07-31T13:20:22;94552.06;;;28.68
31528;BMP280;10206;48.012;10.030;2023-07-31T13:22:48;94550.69;;;28.59
31528;BMP280;10206;48.012;10.030;2023-07-31T13:25:14;94548.50;;;29.23
31528;BMP280;10206;48.012;10.030;2023-07-31T13:27:40;94556.97;;;28.85
31528;BMP280;10206;48.012;10.030;2023-07-31T13:30:07;94562.59;;;28.79
31528;BMP280;10206;48.012;10.030;2023-07-31T13:32:33;94552.06;;;28.80
31528;BMP280;10206;48.012;10.030;2023-07-31T13:35:01;94542.19;;;29.17
31528;BMP280;10206;48.012;10.030;2023-07-31T13:37:28;94531.03;;;28.61
31528;BMP280;10206;48.012;10.030;2023-07-31T13:39:54;94526.75;;;29.08
31528;BMP280;10206;48.012;10.030;2023-07-31T13:42:20;94518.13;;;29.56
31528;BMP280;10206;48.012;10.030;2023-07-31T13:44:46;94532.34;;;29.20
31528;BMP280;10206;48.012;10.030;2023-07-31T13:47:12;94525.31;;;29.19
31528;BMP280;10206;48.012;10.030;2023-07-31T13:49:38;94520.38;;;29.17
31528;BMP280;10206;48.012;10.030;2023-07-31T13:52:05;94523.97;;;28.80
31528;BMP280;10206;48.012;10.030;2023-07-31T13:54:31;94522.56;;;28.87
31528;BMP280;10206;48.012;10.030;2023-07-31T13:56:57;94528.88;;;28.85
31528;BMP280;10206;48.012;10.030;2023-07-31T13:59:23;94519.09;;;28.54
31528;BMP280;10206;48.012;10.030;2023-07-31T14:01:50;94526.09;;;28.29
31528;BMP280;10206;48.012;10.030;2023-07-31T14:04:16;94520.53;;;28.49
31528;BMP280;10206;48.012;10.030;2023-07-31T14:06:43;94525.41;;;28.69
31528;BMP280;10206;48.012;10.030;2023-07-31T14:09:10;94525.44;;;28.37
31528;BMP280;10206;48.012;10.030;2023-07-31T14:11:36;94518.41;;;28.40